Everhartville, Pennsylvania
Current Conditions -  °F | °C
As of 6:56 PM on Monday 22 Dec 2014 (Local Time) from KCXY Reporting Station
Light Rain Light Rain  
Wind Chill: 34°   Ceiling: 2100
Heat Index: 34°   Visibility: 2.5mi
Dew Point: 32°   Wind: 3mph
Humidity: 92%   Direction: 280°W
Pressure: 30.18"   Gusts: NA
Location:  40.4932°N, 77.217°W
Report Text: KCXY 222356Z 28003KT 2 1/2SM -RA BR BKN021 OVC035 01/00 A3018 RMK AO2 SLP224 P0002 60002 T00110000 10028 20006 58002
Loading
Personal Weather Stations






























Interactive Weather Map New forecast layout! Learn more

10-Day Weather Forecast

Advertisements
Track Severe Weather on mobile